createdAt,value
2018-05-14T00:02:26.209Z,20.33
2018-05-14T00:04:53.716Z,21.60
2018-05-14T00:07:21.236Z,19.77
2018-05-14T00:09:48.748Z,20.80
2018-05-14T00:12:17.039Z,20.90
2018-05-14T00:14:45.303Z,20.77
2018-05-14T00:17:13.589Z,21.40
2018-05-14T00:19:41.852Z,20.00
2018-05-14T00:22:10.149Z,18.30
2018-05-14T00:24:37.708Z,18.20
2018-05-14T00:27:05.228Z,18.90
2018-05-14T00:29:32.823Z,20.70
2018-05-14T00:32:00.336Z,20.20
2018-05-14T00:34:27.832Z,19.30
2018-05-14T00:36:56.121Z,18.40
2018-05-14T00:39:23.657Z,19.67
2018-05-14T00:41:51.941Z,18.73
2018-05-14T00:44:20.209Z,17.77
2018-05-14T00:46:48.492Z,17.77
2018-05-14T00:49:16.761Z,18.70
2018-05-14T00:51:45.041Z,20.70
2018-05-14T00:54:13.312Z,22.80
2018-05-14T00:56:41.596Z,22.07
2018-05-14T00:59:09.868Z,25.23
2018-05-14T01:01:38.158Z,23.30
2018-05-14T01:04:05.657Z,25.07
2018-05-14T01:06:33.280Z,25.00
2018-05-14T01:09:00.697Z,27.03
2018-05-14T01:11:28.246Z,26.50
2018-05-14T01:13:55.750Z,26.90
2018-05-14T01:16:23.276Z,25.80
2018-05-14T01:18:51.562Z,26.93
2018-05-14T01:21:19.847Z,27.40
2018-05-14T01:23:48.109Z,27.53
2018-05-14T01:26:15.629Z,28.70
2018-05-14T01:28:43.153Z,28.60
2018-05-14T01:31:10.674Z,27.43
2018-05-14T01:33:38.260Z,29.30
2018-05-14T01:36:05.713Z,30.67
2018-05-14T01:38:33.985Z,28.90
2018-05-14T01:41:02.273Z,27.57
2018-05-14T01:43:29.781Z,28.83
2018-05-14T01:45:57.301Z,29.00
2018-05-14T01:48:24.860Z,29.50
2018-05-14T01:50:52.389Z,28.73
2018-05-14T01:53:19.885Z,27.33
2018-05-14T01:55:47.394Z,27.40
2018-05-14T01:58:14.988Z,27.03
2018-05-14T02:00:42.496Z,27.97
2018-05-14T02:03:10.022Z,24.43
2018-05-14T02:05:37.521Z,26.47
2018-05-14T02:08:05.120Z,26.10
2018-05-14T02:10:33.390Z,25.33
2018-05-14T02:13:01.673Z,25.30
2018-05-14T02:15:29.189Z,25.70
2018-05-14T02:17:56.705Z,22.90
2018-05-14T02:20:24.206Z,23.27
2018-05-14T02:22:52.495Z,25.53
2018-05-14T02:25:20.089Z,25.33
2018-05-14T02:27:47.603Z,24.17
2018-05-14T02:30:15.872Z,24.40
2018-05-14T02:32:43.385Z,26.27
2018-05-14T02:35:10.893Z,23.03
2018-05-14T02:37:38.410Z,25.50
2018-05-14T02:40:05.912Z,24.10
2018-05-14T02:42:33.428Z,24.87
2018-05-14T02:45:00.934Z,26.10
2018-05-14T02:47:28.534Z,24.37
2018-05-14T02:49:56.093Z,26.50
2018-05-14T02:52:23.614Z,26.97
2018-05-14T02:54:51.122Z,30.43
2018-05-14T02:57:18.645Z,26.40
2018-05-14T02:59:46.921Z,26.50
2018-05-14T03:02:15.211Z,26.57
2018-05-14T03:04:42.716Z,28.03
2018-05-14T03:07:10.332Z,27.53
2018-05-14T03:09:37.832Z,28.50
2018-05-14T03:12:05.378Z,26.53
2018-05-14T03:14:32.878Z,28.07
2018-05-14T03:17:00.399Z,26.33
2018-05-14T03:19:27.901Z,25.17
2018-05-14T03:21:56.187Z,25.50
2018-05-14T03:24:24.447Z,26.60
2018-05-14T03:26:52.041Z,26.20
2018-05-14T03:29:19.548Z,28.37
2018-05-14T03:31:47.157Z,26.43
2018-05-14T03:34:14.657Z,28.63
2018-05-14T03:36:42.177Z,28.07
2018-05-14T03:39:09.680Z,27.93
2018-05-14T03:41:37.216Z,27.97
2018-05-14T03:44:04.720Z,29.23
2018-05-14T03:46:33.018Z,29.20
2018-05-14T03:49:00.516Z,28.53
2018-05-14T03:51:28.154Z,29.13
2018-05-14T03:53:55.657Z,30.03
2018-05-14T03:56:23.161Z,29.47
2018-05-14T03:59:02.581Z,29.73
2018-05-14T04:01:42.960Z,29.20
2018-05-14T04:04:22.397Z,29.27
2018-05-14T04:06:49.948Z,28.43
2018-05-14T04:09:17.453Z,28.73
2018-05-14T04:11:44.985Z,28.80
2018-05-14T04:14:12.524Z,29.07
2018-05-14T04:16:40.884Z,29.40
2018-05-14T04:19:09.164Z,26.93
2018-05-14T04:21:37.432Z,30.57
2018-05-14T04:24:05.712Z,28.10
2018-05-14T04:26:33.976Z,30.80
2018-05-14T04:29:01.509Z,29.37
2018-05-14T04:31:29.019Z,28.90
2018-05-14T04:33:57.297Z,30.90
2018-05-14T04:36:24.800Z,30.23
2018-05-14T04:38:52.312Z,30.20
2018-05-14T04:41:20.585Z,28.67
2018-05-14T04:43:48.877Z,29.37
2018-05-14T04:46:16.434Z,28.20
2018-05-14T04:48:43.957Z,29.80
2018-05-14T04:51:12.245Z,29.63
2018-05-14T04:53:40.524Z,29.00
2018-05-14T04:56:08.792Z,28.10
2018-05-14T04:58:43.076Z,30.90
2018-05-14T05:01:10.576Z,30.80
2018-05-14T05:03:38.864Z,27.53
2018-05-14T05:06:06.364Z,29.50
2018-05-14T05:08:33.884Z,30.90
2018-05-14T05:11:01.381Z,30.07
2018-05-14T05:13:28.902Z,29.67
2018-05-14T05:15:56.723Z,27.80
2018-05-14T05:18:24.239Z,28.00
2018-05-14T05:20:51.740Z,28.23
2018-05-14T05:23:19.260Z,29.17
2018-05-14T05:25:46.761Z,25.50
2018-05-14T05:28:14.281Z,27.50
2018-05-14T05:30:41.795Z,27.80
2018-05-14T05:33:10.085Z,25.73
2018-05-14T05:35:37.592Z,27.70
2018-05-14T05:38:05.112Z,26.50
2018-05-14T05:40:32.616Z,24.77
2018-05-14T05:43:00.225Z,26.40
2018-05-14T05:45:27.720Z,25.77
2018-05-14T05:47:55.240Z,23.80
2018-05-14T05:50:22.741Z,24.80
2018-05-14T05:52:50.274Z,23.63
2018-05-14T05:55:17.772Z,22.90
2018-05-14T05:57:45.335Z,23.30
2018-05-14T06:00:12.821Z,22.13
2018-05-14T06:02:41.094Z,22.43
2018-05-14T06:05:09.037Z,22.33
2018-05-14T06:07:36.541Z,22.80
2018-05-14T06:10:04.084Z,22.43
2018-05-14T06:12:32.347Z,22.00
2018-05-14T06:15:00.640Z,21.33
2018-05-14T06:17:28.135Z,21.43
2018-05-14T06:19:55.657Z,20.10
2018-05-14T06:22:23.296Z,21.30
2018-05-14T06:24:50.765Z,19.33
2018-05-14T06:27:19.040Z,20.43
2018-05-14T06:29:47.324Z,20.20
2018-05-14T06:32:14.820Z,21.20
2018-05-14T06:34:42.333Z,20.30
2018-05-14T06:37:10.596Z,21.17
2018-05-14T06:39:38.880Z,20.53
2018-05-14T06:42:07.185Z,19.83
2018-05-14T06:44:34.701Z,20.20
2018-05-14T06:47:02.209Z,18.40
2018-05-14T06:49:29.748Z,19.53
2018-05-14T06:51:57.248Z,20.03
2018-05-14T06:54:24.769Z,18.97
2018-05-14T06:56:52.376Z,19.73
2018-05-14T06:59:19.814Z,21.03
2018-05-14T07:01:47.317Z,21.07
2018-05-14T07:04:15.605Z,20.57
2018-05-14T07:06:44.077Z,19.13
2018-05-14T07:09:11.412Z,17.30
2018-05-14T07:11:38.918Z,18.00
2018-05-14T07:14:06.439Z,18.67
2018-05-14T07:16:34.712Z,18.53
2018-05-14T07:19:02.233Z,19.40
2018-05-14T07:21:29.737Z,18.50
2018-05-14T07:23:58.030Z,18.13
2018-05-14T07:26:25.528Z,19.50
2018-05-14T07:28:53.050Z,18.10
2018-05-14T07:31:20.552Z,20.30
2018-05-14T07:33:48.077Z,19.03
2018-05-14T07:36:15.620Z,19.20
2018-05-14T07:38:43.888Z,19.30
2018-05-14T07:41:12.152Z,18.80
2018-05-14T07:43:39.733Z,19.80
2018-05-14T07:46:07.274Z,19.23
2018-05-14T07:48:34.773Z,17.20
2018-05-14T07:51:02.278Z,17.77
2018-05-14T07:53:29.966Z,17.93
2018-05-14T07:55:57.315Z,18.37
2018-05-14T07:58:25.585Z,18.60
2018-05-14T08:00:53.869Z,17.47
2018-05-14T08:03:22.137Z,17.90
2018-05-14T08:05:50.452Z,16.50
2018-05-14T08:08:17.996Z,17.40
2018-05-14T08:10:45.514Z,18.13
2018-05-14T08:13:14.519Z,17.97
2018-05-14T08:15:42.813Z,15.73
2018-05-14T08:18:12.024Z,17.00
2018-05-14T08:20:39.551Z,16.27
2018-05-14T08:23:08.437Z,16.80
2018-05-14T08:25:36.029Z,17.33
2018-05-14T08:28:03.528Z,16.07
2018-05-14T08:30:31.053Z,16.53
2018-05-14T08:32:58.552Z,19.20
2018-05-14T08:35:26.070Z,17.47
2018-05-14T08:37:53.573Z,17.13
2018-05-14T08:40:21.103Z,16.00
2018-05-14T08:42:48.605Z,16.83
2018-05-14T08:45:16.126Z,17.07
2018-05-14T08:47:43.628Z,16.87
2018-05-14T08:50:11.914Z,16.10
2018-05-14T08:52:40.185Z,17.57
2018-05-14T08:55:08.486Z,18.10
2018-05-14T08:57:36.084Z,16.37
2018-05-14T09:00:04.379Z,15.30
2018-05-14T09:02:31.837Z,16.00
2018-05-14T09:04:59.352Z,15.90
2018-05-14T09:07:26.849Z,14.50
2018-05-14T09:09:54.369Z,16.13
2018-05-14T09:12:21.906Z,16.00
2018-05-14T09:14:49.460Z,15.17
2018-05-14T09:17:16.965Z,15.47
2018-05-14T09:19:44.488Z,15.60
2018-05-14T09:22:12.000Z,14.90
2018-05-14T09:24:39.599Z,17.27
2018-05-14T09:27:07.100Z,16.67
2018-05-14T09:29:34.617Z,15.43
2018-05-14T09:32:02.495Z,17.60
2018-05-14T09:34:30.013Z,16.20
2018-05-14T09:36:58.300Z,15.93
2018-05-14T09:39:26.584Z,16.13
2018-05-14T09:41:54.096Z,18.30
2018-05-14T09:44:21.608Z,17.07
2018-05-14T09:46:49.109Z,17.10
2018-05-14T09:49:16.635Z,16.90
2018-05-14T09:51:44.136Z,15.47
2018-05-14T09:54:11.665Z,14.60
2018-05-14T09:56:39.160Z,17.33
2018-05-14T09:59:06.665Z,17.10
2018-05-14T10:01:34.180Z,17.20
2018-05-14T10:04:01.684Z,17.30
2018-05-14T10:06:29.204Z,17.47
2018-05-14T10:08:56.700Z,17.47
2018-05-14T10:11:24.221Z,18.40
2018-05-14T10:13:52.489Z,16.97
2018-05-14T10:16:20.013Z,17.67
2018-05-14T10:18:47.602Z,18.13
2018-05-14T10:21:15.815Z,18.63
2018-05-14T10:23:43.330Z,18.90
2018-05-14T10:26:10.849Z,18.67
2018-05-14T10:28:38.362Z,17.27
2018-05-14T10:31:05.880Z,18.13
2018-05-14T10:33:33.379Z,17.00
2018-05-14T10:36:01.672Z,19.90
2018-05-14T10:38:29.971Z,18.30
2018-05-14T10:40:57.488Z,18.47
2018-05-14T10:43:25.001Z,19.90
2018-05-14T10:45:52.526Z,19.43
2018-05-14T10:48:20.037Z,19.90
2018-05-14T10:50:47.556Z,24.07
2018-05-14T10:53:15.062Z,19.27
2018-05-14T10:55:42.580Z,20.40
2018-05-14T10:58:10.087Z,21.23
2018-05-14T11:00:37.605Z,18.93
2018-05-14T11:03:05.107Z,20.97
2018-05-14T11:05:32.620Z,19.43
2018-05-14T11:08:00.117Z,20.63
2018-05-14T11:10:27.653Z,22.83
2018-05-14T11:12:55.157Z,21.37
2018-05-14T11:15:23.440Z,21.43
2018-05-14T11:17:51.708Z,19.37
2018-05-14T11:20:19.996Z,21.90
2018-05-14T11:22:47.496Z,20.77
2018-05-14T11:25:15.020Z,21.17
2018-05-14T11:27:42.584Z,21.70
2018-05-14T11:30:10.064Z,21.60
2018-05-14T11:32:37.560Z,20.67
2018-05-14T11:35:05.077Z,20.70
2018-05-14T11:37:32.572Z,18.80
2018-05-14T11:40:00.084Z,17.40
2018-05-14T11:42:27.585Z,18.03
2018-05-14T11:44:55.121Z,19.77
2018-05-14T11:47:22.625Z,19.90
2018-05-14T11:49:50.896Z,19.80
2018-05-14T11:52:19.184Z,18.60
2018-05-14T11:54:46.689Z,17.83
2018-05-14T11:57:14.976Z,20.23
2018-05-14T11:59:42.471Z,17.70
2018-05-14T12:02:10.752Z,17.10
2018-05-14T12:04:39.020Z,17.87
2018-05-14T12:07:07.298Z,19.57
2018-05-14T12:09:35.573Z,18.00
2018-05-14T12:12:03.877Z,18.87
2018-05-14T12:14:31.377Z,18.87
2018-05-14T12:16:58.896Z,19.00
2018-05-14T12:19:26.392Z,18.43
2018-05-14T12:21:53.905Z,17.50
2018-05-14T12:24:21.408Z,21.33
2018-05-14T12:26:48.941Z,17.87
2018-05-14T12:29:16.445Z,19.23
2018-05-14T12:31:44.741Z,21.20
2018-05-14T12:34:13.000Z,20.40
2018-05-14T12:36:41.280Z,19.83
2018-05-14T12:39:09.549Z,20.67
2018-05-14T12:41:37.832Z,18.70
2018-05-14T12:44:06.096Z,20.63
2018-05-14T12:46:33.616Z,22.23
2018-05-14T12:49:01.122Z,20.97
2018-05-14T12:51:29.409Z,22.63
2018-05-14T12:53:57.681Z,25.83
2018-05-14T12:56:25.959Z,21.17
2018-05-14T12:58:54.229Z,23.53
2018-05-14T13:01:22.504Z,22.87
2018-05-14T13:03:50.772Z,22.97
2018-05-14T13:06:18.295Z,23.50
2018-05-14T13:08:45.801Z,25.30
2018-05-14T13:11:14.089Z,26.23
2018-05-14T13:13:41.588Z,25.87
2018-05-14T13:16:09.104Z,24.80
2018-05-14T13:18:36.604Z,23.37
2018-05-14T13:21:04.117Z,24.23
2018-05-14T13:23:31.620Z,25.10
2018-05-14T13:25:59.137Z,23.10
2018-05-14T13:28:26.646Z,20.80
2018-05-14T13:30:54.173Z,21.93
2018-05-14T13:33:21.684Z,23.33
2018-05-14T13:35:49.200Z,21.17
2018-05-14T13:38:16.700Z,22.40
2018-05-14T13:40:44.225Z,23.93
2018-05-14T13:43:11.734Z,22.43
2018-05-14T13:45:40.007Z,26.00
2018-05-14T13:48:08.295Z,23.63
2018-05-14T13:50:35.795Z,24.77
2018-05-14T13:53:03.322Z,25.97
2018-05-14T13:55:30.824Z,27.13
2018-05-14T13:57:58.341Z,25.40
2018-05-14T14:00:25.844Z,27.83
2018-05-14T14:02:53.369Z,26.43
2018-05-14T14:05:20.872Z,24.97
2018-05-14T14:07:48.396Z,24.40
2018-05-14T14:10:15.908Z,23.53
2018-05-14T14:12:44.203Z,23.43
2018-05-14T14:15:11.709Z,24.27
2018-05-14T14:17:39.227Z,24.93
2018-05-14T14:20:06.728Z,22.17
2018-05-14T14:22:34.256Z,22.90
2018-05-14T14:25:01.756Z,22.07
2018-05-14T14:27:29.281Z,21.63
2018-05-14T14:29:56.788Z,22.67
2018-05-14T14:32:25.072Z,19.37
2018-05-14T14:34:53.344Z,20.37
2018-05-14T14:37:21.628Z,20.93
2018-05-14T14:39:49.137Z,19.53
2018-05-14T14:42:16.656Z,22.20
2018-05-14T14:44:44.160Z,22.73
2018-05-14T14:47:11.677Z,23.07
2018-05-14T14:49:39.180Z,21.00
2018-05-14T14:52:06.704Z,20.60
2018-05-14T14:54:34.208Z,17.73
2018-05-14T14:57:01.734Z,15.90
2018-05-14T14:59:29.232Z,15.33
2018-05-14T15:01:57.521Z,16.57
2018-05-14T15:04:25.792Z,15.37
2018-05-14T15:06:54.154Z,16.37
2018-05-14T15:09:21.604Z,15.50
2018-05-14T15:11:49.116Z,15.93
2018-05-14T15:14:16.621Z,17.70
2018-05-14T15:16:44.146Z,16.13
2018-05-14T15:19:11.661Z,15.40
2018-05-14T15:21:39.958Z,14.20
2018-05-14T15:24:07.462Z,14.20
2018-05-14T15:26:34.994Z,13.73
2018-05-14T15:29:02.497Z,10.63
2018-05-14T15:31:30.021Z,8.97
2018-05-14T15:33:57.969Z,7.83
2018-05-14T15:36:25.493Z,7.60
2018-05-14T15:38:53.764Z,6.90
2018-05-14T15:41:22.124Z,7.27
2018-05-14T15:43:49.577Z,7.33
2018-05-14T15:46:17.080Z,9.17
2018-05-14T15:48:44.592Z,9.73
2018-05-14T15:51:12.093Z,8.33
2018-05-14T15:53:39.600Z,9.70
2018-05-14T15:56:07.452Z,10.03
2018-05-14T15:58:35.690Z,9.07
2018-05-14T16:01:03.184Z,9.20
2018-05-14T16:03:30.696Z,9.97
2018-05-14T16:05:58.959Z,9.33
2018-05-14T16:08:26.468Z,8.70
2018-05-14T16:10:53.972Z,10.20
2018-05-14T16:13:21.489Z,9.00
2018-05-14T16:15:48.988Z,10.47
2018-05-14T16:18:16.513Z,10.30
2018-05-14T16:20:44.039Z,9.90
2018-05-14T16:23:11.553Z,10.23
2018-05-14T16:25:39.048Z,10.30
2018-05-14T16:28:06.565Z,9.80
2018-05-14T16:30:34.069Z,8.53
2018-05-14T16:33:01.584Z,9.00
2018-05-14T16:35:29.080Z,9.63
2018-05-14T16:37:56.602Z,10.53
2018-05-14T16:40:24.104Z,10.00
2018-05-14T16:42:51.930Z,9.90
2018-05-14T16:45:19.434Z,10.03
2018-05-14T16:47:46.965Z,11.13
2018-05-14T16:50:15.272Z,10.20
2018-05-14T16:52:42.774Z,9.73
2018-05-14T16:55:10.268Z,9.47
2018-05-14T16:57:38.600Z,10.13
2018-05-14T17:00:06.081Z,9.73
2018-05-14T17:02:33.592Z,9.07
2018-05-14T17:05:01.106Z,11.17
2018-05-14T17:07:29.405Z,10.70
2018-05-14T17:09:56.907Z,12.27
2018-05-14T17:12:24.430Z,11.70
2018-05-14T17:14:51.937Z,14.53
2018-05-14T17:17:19.546Z,13.70
2018-05-14T17:19:46.981Z,10.80
2018-05-14T17:22:15.277Z,12.67
2018-05-14T17:24:42.788Z,11.10
2018-05-14T17:27:10.308Z,11.17
2018-05-14T17:29:37.810Z,11.60
2018-05-14T17:32:05.329Z,11.77
2018-05-14T17:34:32.844Z,12.40
2018-05-14T17:37:01.132Z,19.60
2018-05-14T17:39:28.657Z,24.47
2018-05-14T17:41:56.165Z,15.27
2018-05-14T17:44:23.690Z,12.20
2018-05-14T17:46:52.068Z,13.17
2018-05-14T17:49:19.517Z,13.77
2018-05-14T17:51:47.017Z,12.07
2018-05-14T17:54:14.527Z,12.50
2018-05-14T17:56:42.029Z,13.30
2018-05-14T17:59:09.548Z,14.80
2018-05-14T18:01:37.057Z,20.83
2018-05-14T18:04:04.577Z,31.53
2018-05-14T18:06:32.854Z,30.40
2018-05-14T18:09:01.136Z,41.23
2018-05-14T18:11:29.414Z,26.90
2018-05-14T18:13:57.701Z,15.03
2018-05-14T18:16:25.204Z,13.30
2018-05-14T18:18:52.715Z,26.23
2018-05-14T18:21:25.792Z,16.17
2018-05-14T18:23:54.071Z,14.37
2018-05-14T18:26:25.592Z,15.50
2018-05-14T18:29:07.992Z,15.50
2018-05-14T18:31:41.227Z,17.17
2018-05-14T18:34:08.757Z,33.63
2018-05-14T18:36:36.273Z,13.27
2018-05-14T18:39:04.635Z,11.97
2018-05-14T18:41:32.141Z,12.10
2018-05-14T18:43:59.661Z,12.60
2018-05-14T18:46:27.173Z,14.73
2018-05-14T18:48:55.457Z,15.13
2018-05-14T18:51:23.722Z,14.93
2018-05-14T18:53:52.012Z,14.60
2018-05-14T18:56:20.301Z,14.33
2018-05-14T18:58:47.824Z,15.80
2018-05-14T19:01:16.088Z,15.53
2018-05-14T19:03:43.613Z,16.33
2018-05-14T19:06:11.154Z,16.10
2018-05-14T19:08:38.712Z,15.30
2018-05-14T19:11:11.996Z,15.87
2018-05-14T19:13:40.401Z,16.03
2018-05-14T19:16:13.556Z,15.83
2018-05-14T19:18:41.856Z,17.73
2018-05-14T19:21:09.369Z,18.20
2018-05-14T19:23:42.910Z,17.40
2018-05-14T19:26:10.476Z,17.73
2018-05-14T19:28:43.665Z,16.60
2018-05-14T19:31:11.172Z,15.90
2018-05-14T19:33:44.371Z,15.70
2018-05-14T19:36:11.962Z,14.20
2018-05-14T19:38:39.405Z,13.80
2018-05-14T19:41:08.693Z,13.80
2018-05-14T19:43:36.221Z,12.20
2018-05-14T19:46:03.729Z,15.53
2018-05-14T19:48:32.025Z,13.30
2018-05-14T19:50:59.589Z,13.47
2018-05-14T19:53:27.089Z,11.40
2018-05-14T19:55:54.617Z,18.70
2018-05-14T19:58:22.156Z,16.80
2018-05-14T20:00:49.701Z,11.90
2018-05-14T20:03:17.999Z,12.97
2018-05-14T20:05:46.268Z,14.03
2018-05-14T20:08:13.765Z,13.57
2018-05-14T20:10:41.304Z,12.20
2018-05-14T20:13:08.839Z,12.83
2018-05-14T20:15:36.392Z,13.90
2018-05-14T20:18:04.669Z,13.40
2018-05-14T20:20:32.192Z,14.20
2018-05-14T20:22:59.799Z,14.00
2018-05-14T20:25:27.329Z,14.83
2018-05-14T20:27:55.637Z,14.80
2018-05-14T20:30:23.161Z,14.93
2018-05-14T20:32:50.664Z,15.80
2018-05-14T20:35:18.187Z,14.70
2018-05-14T20:37:46.461Z,14.77
2018-05-14T20:40:14.747Z,13.87
2018-05-14T20:42:43.013Z,15.80
2018-05-14T20:45:11.355Z,16.10
2018-05-14T20:47:38.812Z,15.30
2018-05-14T20:50:06.426Z,14.00
2018-05-14T20:52:33.946Z,14.53
2018-05-14T20:55:01.469Z,15.97
2018-05-14T20:57:28.972Z,15.90
2018-05-14T20:59:56.493Z,14.73
2018-05-14T21:02:24.000Z,16.53
2018-05-14T21:04:52.280Z,14.67
2018-05-14T21:07:20.550Z,16.80
2018-05-14T21:09:48.837Z,16.70
2018-05-14T21:12:17.128Z,15.40
2018-05-14T21:14:44.738Z,15.50
2018-05-14T21:17:12.193Z,17.37
2018-05-14T21:19:39.717Z,15.93
2018-05-14T21:22:07.227Z,16.70
2018-05-14T21:24:34.740Z,15.00
2018-05-14T21:27:02.246Z,15.87
2018-05-14T21:29:30.537Z,15.20
2018-05-14T21:31:58.813Z,15.50
2018-05-14T21:34:27.097Z,14.77
2018-05-14T21:36:54.612Z,13.70
2018-05-14T21:39:22.128Z,14.03
2018-05-14T21:41:49.632Z,14.87
2018-05-14T21:44:17.149Z,13.90
2018-05-14T21:46:44.695Z,14.00
2018-05-14T21:49:12.257Z,14.97
2018-05-14T21:51:39.772Z,13.93
2018-05-14T21:54:07.355Z,15.57
2018-05-14T21:56:34.822Z,30.17
2018-05-14T21:59:02.384Z,20.90
2018-05-14T22:01:29.904Z,13.57
2018-05-14T22:03:58.177Z,14.00
2018-05-14T22:06:25.693Z,14.53
2018-05-14T22:08:53.252Z,13.07
2018-05-14T22:11:20.775Z,13.80
2018-05-14T22:13:49.040Z,13.00
2018-05-14T22:16:16.557Z,13.13
2018-05-14T22:18:44.057Z,12.83
2018-05-14T22:21:11.576Z,13.00
2018-05-14T22:23:39.081Z,13.87
2018-05-14T22:26:07.374Z,13.47
2018-05-14T22:28:35.675Z,13.70
2018-05-14T22:31:03.200Z,14.03
2018-05-14T22:33:31.469Z,12.97
2018-05-14T22:35:59.751Z,13.13
2018-05-14T22:38:28.020Z,12.27
2018-05-14T22:40:56.309Z,11.50
2018-05-14T22:43:24.577Z,12.77
2018-05-14T22:45:52.868Z,13.00
2018-05-14T22:48:20.378Z,12.60
2018-05-14T22:50:47.988Z,12.33
2018-05-14T22:53:16.252Z,12.50
2018-05-14T22:55:44.532Z,12.03
2018-05-14T22:58:12.800Z,12.90
2018-05-14T23:00:41.093Z,11.87
2018-05-14T23:03:09.365Z,11.80
2018-05-14T23:08:10.900Z,11.90
2018-05-14T23:10:39.920Z,12.47
2018-05-14T23:13:08.189Z,14.27
2018-05-14T23:15:36.480Z,13.50
2018-05-14T23:18:03.985Z,12.37
2018-05-14T23:20:31.506Z,12.40
2018-05-14T23:22:59.012Z,12.90
2018-05-14T23:25:26.616Z,14.07
2018-05-14T23:27:54.194Z,13.07
2018-05-14T23:30:21.717Z,13.70
2018-05-14T23:32:50.039Z,14.07
2018-05-14T23:35:17.569Z,15.07
2018-05-14T23:37:45.074Z,14.40
2018-05-14T23:40:12.592Z,14.93
2018-05-14T23:42:40.157Z,15.43
2018-05-14T23:45:07.710Z,15.10
2018-05-14T23:47:35.268Z,14.43
2018-05-14T23:50:02.781Z,15.50
2018-05-14T23:52:31.809Z,16.50
2018-05-14T23:55:00.076Z,15.50
2018-05-14T23:57:28.365Z,16.70
2018-05-14T23:59:55.868Z,16.67
